Ogallala, Nebraska
Current Conditions -  °F | °C
As of 1:35 PM on Friday 28 Nov 2014 (Local Time) from KOGA Reporting Station
Clear Clear  
Wind Chill: 64°   Ceiling: Unl
Heat Index: 64°   Visibility: 10mi
Dew Point: 31°   Wind: 14mph
Humidity: 28%   Direction: 260°W
Pressure: 29.73"   Gusts: NA
Location:  41.12°N, 101.71°W
Report Text: KOGA 282035Z AUTO 26012KT 10SM CLR 18/M01 A2973 RMK AO2 T01801007
Loading
Personal Weather Stations






























Interactive Weather Map New forecast layout! Learn more

10-Day Weather Forecast

Advertisements
Track Severe Weather on mobile